DEBOI EDDF-EDDL
Flight info
| Callsign | DEBOI |
|---|---|
| Flight time | N/A |
| Altitude | 10000 |
| Route | MARUN3W/25C MARUN Y152 ARPEG Z850 HMM L602 RKN L980 LOGAN |
| Aircraft | C172/L-SFG/C |
Departure
| Time | N/A |
|---|---|
| Airport | Frankfurt Main Airport (EDDF) |
Arrival
| Time | 2026-05-05 14:15 |
|---|---|
| Airport | Düsseldorf Airport (EDDL) |
| Time | Latitude | Longitude | Altitude | Speed | Heading |
|---|---|---|---|---|---|
| 2026-05-05 14:03 | 51.19003 | 6.92093 | 5916 ft | 131 kts | 263° |
| 2026-05-05 14:03 | 51.18903 | 6.90655 | 5750 ft | 132 kts | 263° |
| 2026-05-05 14:04 | 51.18820 | 6.89192 | 5544 ft | 131 kts | 264° |
| 2026-05-05 14:04 | 51.18749 | 6.87741 | 5346 ft | 131 kts | 264° |
| 2026-05-05 14:04 | 51.18681 | 6.86288 | 5147 ft | 132 kts | 265° |
| 2026-05-05 14:04 | 51.18615 | 6.84829 | 4949 ft | 132 kts | 265° |
| 2026-05-05 14:05 | 51.18549 | 6.83384 | 4753 ft | 133 kts | 265° |
| 2026-05-05 14:05 | 51.18482 | 6.81915 | 4552 ft | 133 kts | 265° |
| 2026-05-05 14:05 | 51.18414 | 6.80438 | 4348 ft | 134 kts | 266° |
| 2026-05-05 14:05 | 51.18346 | 6.78971 | 4204 ft | 132 kts | 266° |
| 2026-05-05 14:06 | 51.18277 | 6.77509 | 4079 ft | 132 kts | 266° |
| 2026-05-05 14:06 | 51.18209 | 6.76045 | 3949 ft | 132 kts | 266° |
| 2026-05-05 14:06 | 51.18142 | 6.74584 | 3821 ft | 132 kts | 266° |
| 2026-05-05 14:06 | 51.18073 | 6.73117 | 3694 ft | 133 kts | 266° |
| 2026-05-05 14:07 | 51.18005 | 6.71645 | 3568 ft | 133 kts | 266° |
| 2026-05-05 14:07 | 51.17936 | 6.70174 | 3443 ft | 133 kts | 267° |
| 2026-05-05 14:07 | 51.17867 | 6.68701 | 3315 ft | 133 kts | 267° |
| 2026-05-05 14:07 | 51.17798 | 6.67222 | 3191 ft | 134 kts | 267° |
| 2026-05-05 14:08 | 51.17728 | 6.65747 | 3097 ft | 134 kts | 268° |
| 2026-05-05 14:08 | 51.17659 | 6.64278 | 3027 ft | 130 kts | 267° |
| 2026-05-05 14:08 | 51.17590 | 6.62865 | 3025 ft | 126 kts | 267° |
| 2026-05-05 14:08 | 51.17524 | 6.61490 | 3015 ft | 123 kts | 268° |
| 2026-05-05 14:09 | 51.17459 | 6.60142 | 3018 ft | 121 kts | 268° |
| 2026-05-05 14:09 | 51.17394 | 6.58786 | 3017 ft | 121 kts | 268° |
| 2026-05-05 14:09 | 51.17361 | 6.57455 | 3018 ft | 120 kts | 281° |
| 2026-05-05 14:09 | 51.17799 | 6.56417 | 3020 ft | 116 kts | 329° |
| 2026-05-05 14:10 | 51.18561 | 6.56370 | 3029 ft | 115 kts | 30° |
| 2026-05-05 14:10 | 51.19205 | 6.57120 | 3029 ft | 116 kts | 46° |
| 2026-05-05 14:10 | 51.19753 | 6.58125 | 2897 ft | 124 kts | 49° |
| 2026-05-05 14:10 | 51.20317 | 6.59224 | 2728 ft | 130 kts | 51° |
| 2026-05-05 14:11 | 51.20884 | 6.60375 | 2546 ft | 133 kts | 52° |
| 2026-05-05 14:11 | 51.21451 | 6.61537 | 2363 ft | 132 kts | 52° |
| 2026-05-05 14:11 | 51.22003 | 6.62699 | 2193 ft | 132 kts | 53° |
| 2026-05-05 14:11 | 51.22561 | 6.63859 | 2007 ft | 130 kts | 52° |
| 2026-05-05 14:12 | 51.23106 | 6.65014 | 1798 ft | 130 kts | 52° |
| 2026-05-05 14:12 | 51.23656 | 6.66154 | 1628 ft | 129 kts | 51° |
| 2026-05-05 14:12 | 51.24184 | 6.67272 | 1454 ft | 126 kts | 51° |
| 2026-05-05 14:12 | 51.24713 | 6.68376 | 1289 ft | 126 kts | 51° |
| 2026-05-05 14:13 | 51.25268 | 6.69543 | 1089 ft | 128 kts | 51° |
| 2026-05-05 14:13 | 51.25792 | 6.70642 | 918 ft | 129 kts | 51° |
| 2026-05-05 14:13 | 51.26330 | 6.71775 | 724 ft | 126 kts | 49° |
| 2026-05-05 14:13 | 51.26868 | 6.72892 | 570 ft | 129 kts | 50° |
| 2026-05-05 14:14 | 51.27390 | 6.74033 | 400 ft | 126 kts | 50° |
| 2026-05-05 14:14 | 51.27889 | 6.75051 | 253 ft | 102 kts | 46° |
| 2026-05-05 14:14 | 51.28266 | 6.75862 | 146 ft | 86 kts | 45° |
| 2026-05-05 14:14 | 51.28598 | 6.76530 | 131 ft | 68 kts | 51° |
| 2026-05-05 14:15 | 51.28828 | 6.77016 | 135 ft | 55 kts | 53° |
| 2026-05-05 14:15 | 51.29020 | 6.77458 | 136 ft | 40 kts | 83° |
| 2026-05-05 14:15 | 51.28960 | 6.77625 | 138 ft | 0 kts | 142° |
| 2026-05-05 14:15 | 51.28959 | 6.77628 | 138 ft | 2 kts | 136° |
| 2026-05-05 14:16 | 51.28899 | 6.77628 | 136 ft | 16 kts | 220° |
| 2026-05-05 14:16 | 51.28815 | 6.77455 | 134 ft | 20 kts | 234° |
| 2026-05-05 14:16 | 51.28740 | 6.77299 | 135 ft | 16 kts | 230° |
| 2026-05-05 14:16 | 51.28676 | 6.77163 | 136 ft | 15 kts | 230° |
| 2026-05-05 14:17 | 51.28610 | 6.77033 | 136 ft | 16 kts | 241° |
| 2026-05-05 14:17 | 51.28538 | 6.76876 | 134 ft | 19 kts | 232° |
| 2026-05-05 14:17 | 51.28452 | 6.76698 | 129 ft | 22 kts | 232° |
| 2026-05-05 14:17 | 51.28355 | 6.76493 | 128 ft | 24 kts | 233° |
| 2026-05-05 14:18 | 51.28258 | 6.76292 | 125 ft | 21 kts | 231° |
| 2026-05-05 14:18 | 51.28175 | 6.76114 | 124 ft | 20 kts | 231° |
| 2026-05-05 14:18 | 51.28097 | 6.75952 | 129 ft | 17 kts | 232° |
| 2026-05-05 14:18 | 51.28024 | 6.75796 | 124 ft | 19 kts | 232° |
| 2026-05-05 14:19 | 51.27941 | 6.75625 | 121 ft | 21 kts | 234° |
| 2026-05-05 14:19 | 51.27850 | 6.75429 | 122 ft | 22 kts | 233° |
| 2026-05-05 14:19 | 51.27722 | 6.75447 | 121 ft | 19 kts | 154° |
| 2026-05-05 14:19 | 51.27611 | 6.75511 | 121 ft | 15 kts | 167° |
| 2026-05-05 14:20 | 51.27519 | 6.75581 | 120 ft | 14 kts | 154° |
| 2026-05-05 14:20 | 51.27473 | 6.75622 | 123 ft | 10 kts | 150° |
| 2026-05-05 14:20 | 51.27440 | 6.75578 | 123 ft | 8 kts | 290° |
| 2026-05-05 14:20 | 51.27445 | 6.75556 | 122 ft | 0 kts | 286° |
| 2026-05-05 14:21 | 51.27452 | 6.75511 | 121 ft | 12 kts | 287° |
| 2026-05-05 14:21 | 51.27470 | 6.75379 | 118 ft | 3 kts | 280° |
| 2026-05-05 14:22 | 51.27481 | 6.75304 | 119 ft | 10 kts | 282° |
| 2026-05-05 14:22 | 51.27521 | 6.75222 | 117 ft | 10 kts | 346° |
| 2026-05-05 14:22 | 51.27556 | 6.75244 | 119 ft | 0 kts | 69° |